Time,TemperatureF,DewpointF,PressureIn,WindDirection,WindDirectionDegrees,WindSpeedMPH,WindSpeedGustMPH,Humidity,HourlyPrecipIn,Conditions,Clouds,dailyrainin,SolarRadiationWatts/m^2,SoftwareType,DateUTC
2013-06-16 00:01:00,60.0,49.0,-100.00,WNW,292,0.0,6.0,66,0.00,,,0.01,0.000000,,2013-06-16 07:01:00,
2013-06-16 00:11:00,56.0,49.0,-100.00,NW,307,2.0,7.0,76,0.00,,,0.01,0.000000,,2013-06-16 07:11:00,
2013-06-16 00:43:00,56.0,49.0,-100.00,NW,307,2.0,7.0,76,0.00,,,0.01,0.000000,,2013-06-16 07:43:00,
2013-06-16 00:53:00,56.0,49.0,-100.00,NW,307,2.0,7.0,76,0.00,,,0.01,0.000000,,2013-06-16 07:53:00,
2013-06-16 01:02:00,56.0,49.0,-100.00,NW,307,2.0,7.0,76,0.00,,,0.01,0.000000,,2013-06-16 08:02:00,
2013-06-16 01:11:00,55.0,50.0,-100.00,NW,311,2.0,5.0,83,0.00,,,0.01,0.000000,,2013-06-16 08:11:00,
2013-06-16 01:34:00,55.0,50.0,-100.00,NW,311,2.0,5.0,83,0.00,,,0.01,0.000000,,2013-06-16 08:34:00,
2013-06-16 01:43:00,55.0,50.0,-100.00,NW,311,2.0,5.0,83,0.00,,,0.01,0.000000,,2013-06-16 08:43:00,
2013-06-16 01:54:00,55.0,50.0,-100.00,NW,311,2.0,5.0,83,0.00,,,0.01,0.000000,,2013-06-16 08:54:00,
2013-06-16 02:01:00,55.0,50.0,-100.00,NW,311,2.0,5.0,83,0.00,,,0.01,0.000000,,2013-06-16 09:01:00,
2013-06-16 02:11:00,54.0,50.0,-100.00,NNW,334,0.0,3.0,87,0.00,,,0.01,0.000000,,2013-06-16 09:11:00,
2013-06-16 02:33:00,54.0,50.0,-100.00,NNW,334,0.0,3.0,87,0.00,,,0.01,0.000000,,2013-06-16 09:33:00,
2013-06-16 02:43:00,54.0,50.0,-100.00,NNW,334,0.0,3.0,87,0.00,,,0.01,0.000000,,2013-06-16 09:43:00,
2013-06-16 02:52:00,54.0,50.0,-100.00,NNW,334,0.0,3.0,87,0.00,,,0.01,0.000000,,2013-06-16 09:52:00,
2013-06-16 03:01:00,54.0,50.0,-100.00,NNW,334,0.0,3.0,87,0.00,,,0.01,0.000000,,2013-06-16 10:01:00,
2013-06-16 03:11:00,52.0,49.0,-100.00,NE,55,0.0,0.0,90,0.00,,,-99.99,0.000000,,2013-06-16 10:11:00,
2013-06-16 03:33:00,52.0,49.0,-100.00,NE,55,0.0,0.0,90,0.00,,,-99.99,0.000000,,2013-06-16 10:33:00,
2013-06-16 03:43:00,52.0,49.0,-100.00,NE,55,0.0,0.0,90,0.00,,,-99.99,0.000000,,2013-06-16 10:43:00,
2013-06-16 03:53:00,52.0,49.0,-100.00,NE,55,0.0,0.0,90,0.00,,,-99.99,0.000000,,2013-06-16 10:53:00,
2013-06-16 04:02:00,52.0,49.0,-100.00,NE,55,0.0,0.0,90,0.00,,,-99.99,0.000000,,2013-06-16 11:02:00,
2013-06-16 04:11:00,51.0,48.0,-100.00,NNW,328,0.0,0.0,91,0.00,,,0.01,0.000000,,2013-06-16 11:11:00,
2013-06-16 04:43:00,51.0,48.0,-100.00,NNW,328,0.0,0.0,91,0.00,,,0.01,0.000000,,2013-06-16 11:43:00,
2013-06-16 04:53:00,51.0,48.0,-100.00,NNW,328,0.0,0.0,91,0.00,,,0.01,0.000000,,2013-06-16 11:53:00,
2013-06-16 05:01:00,51.0,48.0,-100.00,NNW,328,0.0,0.0,91,0.00,,,0.01,0.000000,,2013-06-16 12:01:00,
2013-06-16 05:11:00,50.0,48.0,-100.00,NE,47,0.0,0.0,94,0.00,,,0.01,0.000000,,2013-06-16 12:11:00,
2013-06-16 05:33:00,50.0,48.0,-100.00,NE,47,0.0,0.0,94,0.00,,,0.01,0.000000,,2013-06-16 12:33:00,
2013-06-16 05:43:00,50.0,48.0,-100.00,NE,47,0.0,0.0,94,0.00,,,0.01,0.000000,,2013-06-16 12:43:00,
2013-06-16 05:53:00,50.0,48.0,-100.00,NE,47,0.0,0.0,94,0.00,,,0.01,0.000000,,2013-06-16 12:53:00,
2013-06-16 06:01:00,50.0,48.0,-100.00,NE,47,0.0,0.0,94,0.00,,,0.01,0.000000,,2013-06-16 13:01:00,
2013-06-16 06:11:00,48.0,47.0,-100.00,North,3,0.0,0.0,95,0.00,,,0.01,9.000000,,2013-06-16 13:11:00,
2013-06-16 06:34:00,48.0,47.0,-100.00,North,3,0.0,0.0,95,0.00,,,0.01,9.000000,,2013-06-16 13:34:00,
2013-06-16 06:43:00,48.0,47.0,-100.00,North,3,0.0,0.0,95,0.00,,,0.01,9.000000,,2013-06-16 13:43:00,
2013-06-16 06:53:00,48.0,47.0,-100.00,North,3,0.0,0.0,95,0.00,,,0.01,9.000000,,2013-06-16 13:53:00,
2013-06-16 07:01:00,48.0,47.0,-100.00,North,3,0.0,0.0,95,0.00,,,0.01,9.000000,,2013-06-16 14:01:00,
2013-06-16 07:11:00,50.0,48.0,-100.00,SSE,149,0.0,0.0,93,0.00,,,0.01,50.000000,,2013-06-16 14:11:00,
2013-06-16 07:34:00,50.0,48.0,-100.00,SSE,149,0.0,0.0,93,0.00,,,0.01,50.000000,,2013-06-16 14:34:00,
2013-06-16 07:43:00,50.0,48.0,-100.00,SSE,149,0.0,0.0,93,0.00,,,0.01,50.000000,,2013-06-16 14:43:00,
2013-06-16 07:52:00,50.0,48.0,-100.00,SSE,149,0.0,0.0,93,0.00,,,0.01,50.000000,,2013-06-16 14:52:00,
2013-06-16 08:02:00,50.0,48.0,-100.00,SSE,149,0.0,0.0,93,0.00,,,0.01,50.000000,,2013-06-16 15:02:00,
2013-06-16 08:11:00,56.0,49.0,-100.00,West,280,0.0,0.0,76,0.00,,,0.01,220.000000,,2013-06-16 15:11:00,
2013-06-16 08:43:00,56.0,49.0,-100.00,West,280,0.0,0.0,76,0.00,,,0.01,220.000000,,2013-06-16 15:43:00,
2013-06-16 08:52:00,56.0,49.0,-100.00,West,280,0.0,0.0,76,0.00,,,0.01,220.000000,,2013-06-16 15:52:00,
2013-06-16 09:01:00,56.0,49.0,-100.00,West,280,0.0,0.0,76,0.00,,,0.01,220.000000,,2013-06-16 16:01:00,
2013-06-16 09:11:00,59.0,50.0,-100.00,West,259,0.0,3.0,71,0.00,,,0.00,311.000000,,2013-06-16 16:11:00,
2013-06-16 09:33:00,59.0,50.0,-100.00,West,259,0.0,3.0,71,0.00,,,0.00,311.000000,,2013-06-16 16:33:00,
2013-06-16 09:43:00,59.0,50.0,-100.00,West,259,0.0,3.0,71,0.00,,,0.00,311.000000,,2013-06-16 16:43:00,
2013-06-16 09:53:00,59.0,50.0,-100.00,West,259,0.0,3.0,71,0.00,,,0.00,311.000000,,2013-06-16 16:53:00,
2013-06-16 10:01:00,59.0,50.0,-100.00,West,259,0.0,3.0,71,0.00,,,0.00,311.000000,,2013-06-16 17:01:00,
2013-06-16 10:11:00,67.0,53.0,-100.00,SSW,201,0.0,4.0,61,0.00,,,0.00,622.000000,,2013-06-16 17:11:00,
2013-06-16 10:43:00,67.0,53.0,-100.00,SSW,201,0.0,4.0,61,0.00,,,0.00,622.000000,,2013-06-16 17:43:00,
2013-06-16 10:53:00,67.0,53.0,-100.00,SSW,201,0.0,4.0,61,0.00,,,0.00,622.000000,,2013-06-16 17:53:00,
2013-06-16 11:02:00,67.0,53.0,-100.00,SSW,201,0.0,4.0,61,0.00,,,0.00,622.000000,,2013-06-16 18:02:00,
2013-06-16 11:11:00,67.0,53.0,-100.00,South,186,0.0,4.0,61,0.00,,,0.00,653.000000,,2013-06-16 18:11:00,
2013-06-16 11:34:00,67.0,53.0,-100.00,South,186,0.0,4.0,61,0.00,,,0.00,653.000000,,2013-06-16 18:34:00,
2013-06-16 11:43:00,67.0,53.0,-100.00,South,186,0.0,4.0,61,0.00,,,0.00,653.000000,,2013-06-16 18:43:00,
2013-06-16 11:52:00,67.0,53.0,-100.00,South,186,0.0,4.0,61,0.00,,,0.00,653.000000,,2013-06-16 18:52:00,
2013-06-16 12:01:00,67.0,53.0,-100.00,South,186,0.0,4.0,61,0.00,,,0.00,653.000000,,2013-06-16 19:01:00,
2013-06-16 12:11:00,70.0,54.0,-100.00,SSE,168,0.0,7.0,56,0.00,,,0.00,820.000000,,2013-06-16 19:11:00,
2013-06-16 12:43:00,70.0,54.0,-100.00,SSE,168,0.0,7.0,56,0.00,,,0.00,820.000000,,2013-06-16 19:43:00,
2013-06-16 12:53:00,70.0,54.0,-100.00,SSE,168,0.0,7.0,56,0.00,,,0.00,820.000000,,2013-06-16 19:53:00,
2013-06-16 13:01:00,70.0,54.0,-100.00,SSE,168,0.0,7.0,56,0.00,,,0.00,820.000000,,2013-06-16 20:01:00,
2013-06-16 13:11:00,72.0,55.0,-100.00,South,169,1.0,8.0,56,0.00,,,0.00,928.000000,,2013-06-16 20:11:00,
2013-06-16 13:33:00,72.0,55.0,-100.00,South,169,1.0,8.0,56,0.00,,,0.00,928.000000,,2013-06-16 20:33:00,
2013-06-16 13:43:00,72.0,55.0,-100.00,South,169,1.0,8.0,56,0.00,,,0.00,928.000000,,2013-06-16 20:43:00,
2013-06-16 13:53:00,72.0,55.0,-100.00,South,169,1.0,8.0,56,0.00,,,0.00,928.000000,,2013-06-16 20:53:00,
2013-06-16 14:01:00,72.0,55.0,-100.00,South,169,1.0,8.0,56,0.00,,,0.00,928.000000,,2013-06-16 21:01:00,
2013-06-16 14:11:00,67.0,54.0,-100.00,SSE,154,2.0,10.0,64,0.00,,,0.00,677.000000,,2013-06-16 21:11:00,
2013-06-16 14:33:00,67.0,54.0,-100.00,SSE,154,2.0,10.0,64,0.00,,,0.00,677.000000,,2013-06-16 21:33:00,
2013-06-16 14:42:00,67.0,54.0,-100.00,SSE,154,2.0,10.0,64,0.00,,,0.00,677.000000,,2013-06-16 21:42:00,
2013-06-16 14:53:00,67.0,54.0,-100.00,SSE,154,2.0,10.0,64,0.00,,,0.00,677.000000,,2013-06-16 21:53:00,
2013-06-16 15:01:00,67.0,54.0,-100.00,SSE,154,2.0,10.0,64,0.00,,,0.00,677.000000,,2013-06-16 22:01:00,
2013-06-16 15:11:00,69.0,54.0,-100.00,SSE,162,1.0,11.0,58,0.00,,,0.00,691.000000,,2013-06-16 22:11:00,
2013-06-16 15:32:00,69.0,54.0,-100.00,SSE,162,1.0,11.0,58,0.00,,,0.00,691.000000,,2013-06-16 22:32:00,
2013-06-16 15:42:00,69.0,54.0,-100.00,SSE,162,1.0,11.0,58,0.00,,,0.00,691.000000,,2013-06-16 22:42:00,
2013-06-16 15:52:00,69.0,54.0,-100.00,SSE,162,1.0,11.0,58,0.00,,,0.00,691.000000,,2013-06-16 22:52:00,
2013-06-16 16:01:00,69.0,54.0,-100.00,SSE,162,1.0,11.0,58,0.00,,,0.00,691.000000,,2013-06-16 23:01:00,
2013-06-16 16:11:00,68.0,50.0,-100.00,SSW,202,1.0,8.0,53,0.00,,,0.00,408.000000,,2013-06-16 23:11:00,
2013-06-16 16:32:00,68.0,50.0,-100.00,SSW,202,1.0,8.0,53,0.00,,,0.00,408.000000,,2013-06-16 23:32:00,
2013-06-16 16:42:00,68.0,50.0,-100.00,SSW,202,1.0,8.0,53,0.00,,,0.00,408.000000,,2013-06-16 23:42:00,
2013-06-16 16:52:00,68.0,50.0,-100.00,SSW,202,1.0,8.0,53,0.00,,,0.00,408.000000,,2013-06-16 23:52:00,
2013-06-16 17:01:00,68.0,50.0,-100.00,SSW,202,1.0,8.0,53,0.00,,,0.00,408.000000,,2013-06-17 00:01:00,
2013-06-16 18:11:00,64.0,49.0,-100.00,SE,129,0.0,6.0,58,-99.99,,,0.00,180.000000,,2013-06-17 01:11:00,
2013-06-16 18:32:00,64.0,49.0,-100.00,SE,129,0.0,6.0,58,-99.99,,,0.00,180.000000,,2013-06-17 01:32:00,
2013-06-16 18:43:00,64.0,49.0,-100.00,SE,129,0.0,6.0,58,-99.99,,,0.00,180.000000,,2013-06-17 01:43:00,
2013-06-16 18:53:00,64.0,49.0,-100.00,SE,129,0.0,6.0,58,-99.99,,,0.00,180.000000,,2013-06-17 01:53:00,
2013-06-16 19:02:00,64.0,49.0,-100.00,SE,129,0.0,6.0,58,-99.99,,,0.00,180.000000,,2013-06-17 02:02:00,
2013-06-16 19:11:00,61.0,47.0,-100.00,ESE,106,0.0,7.0,61,0.00,,,0.00,119.000000,,2013-06-17 02:11:00,
2013-06-16 19:34:00,61.0,47.0,-100.00,ESE,106,0.0,7.0,61,0.00,,,0.00,119.000000,,2013-06-17 02:34:00,
2013-06-16 19:43:00,61.0,47.0,-100.00,ESE,106,0.0,7.0,61,0.00,,,0.00,119.000000,,2013-06-17 02:43:00,
2013-06-16 19:53:00,61.0,47.0,-100.00,ESE,106,0.0,7.0,61,0.00,,,0.00,119.000000,,2013-06-17 02:53:00,
2013-06-16 20:02:00,61.0,47.0,-100.00,ESE,106,0.0,7.0,61,0.00,,,0.00,119.000000,,2013-06-17 03:02:00,
2013-06-16 20:11:00,60.0,49.0,-100.00,ENE,63,0.0,5.0,67,0.00,,,0.00,69.000000,,2013-06-17 03:11:00,
2013-06-16 20:33:00,60.0,49.0,-100.00,ENE,63,0.0,5.0,67,0.00,,,0.00,69.000000,,2013-06-17 03:33:00,
2013-06-16 20:44:00,60.0,49.0,-100.00,ENE,63,0.0,5.0,67,0.00,,,0.00,69.000000,,2013-06-17 03:44:00,
2013-06-16 20:54:00,60.0,49.0,-100.00,ENE,63,0.0,5.0,67,0.00,,,0.00,69.000000,,2013-06-17 03:54:00,
2013-06-16 21:02:00,60.0,49.0,-100.00,ENE,63,0.0,5.0,67,0.00,,,0.00,69.000000,,2013-06-17 04:02:00,
2013-06-16 21:11:00,58.0,48.0,-100.00,SE,141,0.0,5.0,69,0.00,,,0.00,31.000000,,2013-06-17 04:11:00,
2013-06-16 21:43:00,58.0,48.0,-100.00,SE,141,0.0,5.0,69,0.00,,,0.00,31.000000,,2013-06-17 04:43:00,
2013-06-16 21:53:00,58.0,48.0,-100.00,SE,141,0.0,5.0,69,0.00,,,0.00,31.000000,,2013-06-17 04:53:00,
2013-06-16 22:02:00,58.0,48.0,-100.00,SE,141,0.0,5.0,69,0.00,,,0.00,31.000000,,2013-06-17 05:02:00,
2013-06-16 22:11:00,56.0,47.0,-100.00,South,178,0.0,4.0,73,0.00,,,0.00,1.000000,,2013-06-17 05:11:00,
2013-06-16 22:33:00,56.0,47.0,-100.00,South,178,0.0,4.0,73,0.00,,,0.00,1.000000,,2013-06-17 05:33:00,
2013-06-16 22:44:00,56.0,47.0,-100.00,South,178,0.0,4.0,73,0.00,,,0.00,1.000000,,2013-06-17 05:44:00,
2013-06-16 22:53:00,56.0,47.0,-100.00,South,178,0.0,4.0,73,0.00,,,0.00,1.000000,,2013-06-17 05:53:00,
2013-06-16 23:02:00,56.0,47.0,-100.00,South,178,0.0,4.0,73,0.00,,,0.00,1.000000,,2013-06-17 06:02:00,
2013-06-16 23:11:00,55.0,49.0,-100.00,SE,128,0.0,5.0,80,0.00,,,0.00,0.000000,,2013-06-17 06:11:00,
2013-06-16 23:43:00,55.0,49.0,-100.00,SE,128,0.0,5.0,80,0.00,,,0.00,0.000000,,2013-06-17 06:43:00,
2013-06-16 23:53:00,55.0,49.0,-100.00,SE,128,0.0,5.0,80,0.00,,,0.00,0.000000,,2013-06-17 06:53:00,